Time;durP1;ratioP1;P1;durP2;ratioP2;P2;SDS_P1;SDS_P2;PMS_P1;PMS_P2;Temp;Humidity;BMP_temperature;BMP_pressure;BME280_temperature;BME280_humidity;BME280_pressure;Samples;Min_cycle;Max_cycle;Signal;HPM_P1;HPM_P2
2023/04/07 00:00:20;;;;;;;14.17;12.70;;;7.80;93.10;;;;;;4899479;29;20472;-73
2023/04/07 00:02:48;;;;;;;15.63;13.93;;;7.80;93.10;;;;;;4898248;29;20836;-73
2023/04/07 00:05:17;;;;;;;14.83;13.30;;;7.80;93.20;;;;;;4898256;29;20991;-73
2023/04/07 00:07:45;;;;;;;14.13;12.73;;;7.70;93.20;;;;;;4898278;29;20488;-73
2023/04/07 00:10:25;;;;;;;15.17;13.40;;;7.70;93.20;;;;;;4898275;29;20446;-73
2023/04/07 00:12:53;;;;;;;14.47;13.07;;;7.70;93.30;;;;;;4899208;29;20476;-73
2023/04/07 00:15:22;;;;;;;14.70;13.30;;;7.60;93.20;;;;;;4899702;29;20511;-73
2023/04/07 00:17:50;;;;;;;15.50;13.90;;;7.60;93.30;;;;;;4897971;29;20461;-73
2023/04/07 00:20:18;;;;;;;14.43;13.13;;;7.60;93.40;;;;;;4897967;29;20455;-74
2023/04/07 00:22:46;;;;;;;14.70;12.90;;;7.60;93.40;;;;;;4899039;29;20467;-74
2023/04/07 00:25:15;;;;;;;15.60;14.10;;;7.50;93.40;;;;;;4899667;29;20941;-74
2023/04/07 00:27:45;;;;;;;14.63;13.23;;;7.50;93.50;;;;;;4899169;29;20439;-73
2023/04/07 00:30:14;;;;;;;14.40;13.00;;;7.50;93.50;;;;;;4897770;29;20457;-74
2023/04/07 00:32:42;;;;;;;14.10;12.80;;;7.40;93.50;;;;;;4897587;29;21008;-73
2023/04/07 00:35:12;;;;;;;14.87;13.47;;;7.40;93.60;;;;;;4897743;29;20450;-73
2023/04/07 00:37:41;;;;;;;14.33;12.90;;;7.40;93.60;;;;;;4898813;29;21003;-74
2023/04/07 00:40:10;;;;;;;14.50;13.10;;;7.30;93.60;;;;;;4899106;29;20450;-73
2023/04/07 00:42:38;;;;;;;15.53;13.90;;;7.30;93.60;;;;;;4898912;29;20486;-73
2023/04/07 00:45:10;;;;;;;15.07;13.57;;;7.30;93.70;;;;;;4897583;29;20533;-73
2023/04/07 00:47:38;;;;;;;15.93;14.43;;;7.20;93.70;;;;;;4900521;29;20444;-73
2023/04/07 00:50:08;;;;;;;15.90;14.30;;;7.20;93.70;;;;;;4900784;29;20457;-73
2023/04/07 00:52:36;;;;;;;15.17;13.77;;;7.20;93.80;;;;;;4900832;29;20522;-74
2023/04/07 00:55:05;;;;;;;15.03;13.57;;;7.10;93.80;;;;;;4902470;29;20451;-73
2023/04/07 00:57:33;;;;;;;14.30;12.90;;;7.10;93.80;;;;;;4900588;29;20499;-74
2023/04/07 01:00:02;;;;;;;16.43;14.93;;;7.10;93.90;;;;;;4900372;29;20452;-73
2023/04/07 01:02:37;;;;;;;16.03;14.43;;;7.00;93.90;;;;;;4898797;29;20534;-73
2023/04/07 01:05:12;;;;;;;16.93;14.43;;;7.00;93.90;;;;;;4898704;29;20438;-73
2023/04/07 01:07:56;;;;;;;15.77;14.27;;;6.90;93.90;;;;;;4898695;29;20493;-73
2023/04/07 01:10:32;;;;;;;17.73;15.83;;;6.90;94.00;;;;;;4899671;29;20552;-73
2023/04/07 01:13:12;;;;;;;16.57;14.97;;;6.80;94.00;;;;;;4897627;29;20529;-73
2023/04/07 01:15:42;;;;;;;17.07;15.37;;;6.80;94.00;;;;;;4897181;29;20456;-73
2023/04/07 01:18:15;;;;;;;16.37;14.63;;;6.80;94.00;;;;;;4897068;29;20790;-73
2023/04/07 01:20:46;;;;;;;16.80;15.13;;;6.70;94.10;;;;;;4897095;29;20442;-73
2023/04/07 01:23:28;;;;;;;17.23;15.53;;;6.70;94.10;;;;;;4896941;29;20870;-74
2023/04/07 01:26:18;;;;;;;17.17;15.63;;;6.60;94.20;;;;;;4898491;29;20824;-73
2023/04/07 01:29:39;;;;;;;16.70;15.10;;;6.60;94.20;;;;;;4898234;29;20898;-73
2023/04/07 01:32:11;;;;;;;16.83;15.13;;;6.60;94.20;;;;;;4896928;29;20928;-73
2023/04/07 01:34:41;;;;;;;16.37;14.87;;;6.50;94.20;;;;;;4896905;29;20438;-73
2023/04/07 01:37:11;;;;;;;15.70;14.20;;;6.50;94.30;;;;;;4897015;29;20456;-73
2023/04/07 01:39:40;;;;;;;17.50;15.90;;;6.50;94.30;;;;;;4898132;29;20449;-73
2023/04/07 01:42:11;;;;;;;18.70;16.83;;;6.40;94.30;;;;;;4896722;29;20513;-73
2023/04/07 01:44:41;;;;;;;19.37;17.33;;;6.40;94.40;;;;;;4897952;29;20547;-73
2023/04/07 01:47:11;;;;;;;18.00;16.30;;;6.40;94.40;;;;;;4896758;29;20970;-73
2023/04/07 01:49:41;;;;;;;17.60;15.90;;;6.40;94.40;;;;;;4898071;29;20418;-73
2023/04/07 01:52:10;;;;;;;18.80;16.90;;;6.30;94.40;;;;;;4896536;29;20487;-73
2023/04/07 01:54:39;;;;;;;18.07;16.37;;;6.30;94.50;;;;;;4901441;29;20446;-73
2023/04/07 01:57:07;;;;;;;16.90;15.23;;;6.30;94.50;;;;;;4900401;29;20484;-73
2023/04/07 01:59:35;;;;;;;18.40;16.70;;;6.30;94.60;;;;;;4900646;29;20441;-73
2023/04/07 02:02:05;;;;;;;18.27;16.57;;;6.20;94.60;;;;;;4900403;29;20477;-73
2023/04/07 02:04:40;;;;;;;18.63;16.73;;;6.20;94.60;;;;;;4900436;29;20502;-73
2023/04/07 02:07:14;;;;;;;18.53;16.60;;;6.20;94.60;;;;;;4901836;29;20793;-73
2023/04/07 02:09:48;;;;;;;18.00;16.27;;;6.10;94.60;;;;;;4901902;29;20502;-73
2023/04/07 02:12:17;;;;;;;18.60;16.80;;;6.10;94.60;;;;;;4899992;29;20480;-73
2023/04/07 02:14:57;;;;;;;18.17;16.27;;;6.10;94.70;;;;;;4900391;29;20460;-73
2023/04/07 02:17:29;;;;;;;18.60;16.90;;;6.00;94.60;;;;;;4902209;29;20473;-73
2023/04/07 02:20:01;;;;;;;18.30;16.60;;;6.00;94.70;;;;;;4905348;29;20445;-73
2023/04/07 02:22:29;;;;;;;19.03;17.23;;;6.00;94.80;;;;;;4905520;29;20562;-73
2023/04/07 02:24:57;;;;;;;18.10;16.33;;;6.00;94.80;;;;;;4906298;29;21021;-73
2023/04/07 02:27:28;;;;;;;18.20;16.40;;;5.90;94.80;;;;;;4907362;29;20430;-74
2023/04/07 02:29:56;;;;;;;19.03;17.27;;;5.90;94.80;;;;;;4905997;29;20553;-73
2023/04/07 02:32:25;;;;;;;19.23;17.43;;;5.90;94.90;;;;;;4904798;29;20992;-73
2023/04/07 02:34:53;;;;;;;19.40;17.60;;;5.80;94.90;;;;;;4906211;29;20488;-73
2023/04/07 02:37:22;;;;;;;18.40;16.60;;;5.80;94.90;;;;;;4905184;29;20457;-73
2023/04/07 02:39:50;;;;;;;18.73;16.90;;;5.80;94.90;;;;;;4905259;29;20475;-73
2023/04/07 02:42:20;;;;;;;20.10;18.20;;;5.70;94.90;;;;;;4905793;29;20505;-73
2023/04/07 02:44:49;;;;;;;19.20;17.20;;;5.70;95.00;;;;;;4904543;29;20467;-73
2023/04/07 02:47:17;;;;;;;20.27;18.20;;;5.70;95.00;;;;;;4905410;29;20557;-74
2023/04/07 02:49:45;;;;;;;22.33;18.63;;;5.70;95.00;;;;;;4900085;29;20448;-73
2023/04/07 02:52:13;;;;;;;20.53;18.63;;;5.60;95.00;;;;;;4899620;29;20553;-73
2023/04/07 02:54:43;;;;;;;18.97;17.17;;;5.60;95.10;;;;;;4899817;29;20454;-73
2023/04/07 02:57:12;;;;;;;19.63;17.83;;;5.60;95.10;;;;;;4900884;29;20426;-73
2023/04/07 02:59:41;;;;;;;19.20;17.30;;;5.60;95.10;;;;;;4901071;29;20469;-73
2023/04/07 03:02:12;;;;;;;20.93;19.00;;;5.60;95.20;;;;;;4899436;29;20563;-73
2023/04/07 03:04:40;;;;;;;19.37;17.67;;;5.50;95.20;;;;;;4899134;29;20548;-73
2023/04/07 03:07:09;;;;;;;19.07;17.20;;;5.50;95.20;;;;;;4900587;29;20445;-73
2023/04/07 03:09:37;;;;;;;19.90;18.10;;;5.50;95.20;;;;;;4899274;29;20457;-73
2023/04/07 03:12:07;;;;;;;18.50;16.70;;;5.50;95.30;;;;;;4900470;29;20485;-73
2023/04/07 03:14:36;;;;;;;18.13;16.43;;;5.50;95.30;;;;;;4899357;29;20477;-73
2023/04/07 03:17:05;;;;;;;20.70;18.80;;;5.50;95.30;;;;;;4899045;29;20453;-73
2023/04/07 03:19:33;;;;;;;20.43;18.43;;;5.40;95.20;;;;;;4900333;29;20817;-73
2023/04/07 03:22:02;;;;;;;19.47;17.67;;;5.40;95.30;;;;;;4900318;29;20466;-73
2023/04/07 03:24:35;;;;;;;20.17;18.03;;;5.40;95.30;;;;;;4899241;29;20465;-73
2023/04/07 03:27:03;;;;;;;20.40;18.50;;;5.30;95.30;;;;;;4898870;29;20449;-73
2023/04/07 03:29:41;;;;;;;19.03;17.40;;;5.30;95.30;;;;;;4899088;29;20517;-73
2023/04/07 03:32:12;;;;;;;20.37;18.37;;;5.30;95.40;;;;;;4898914;29;20477;-73
2023/04/07 03:34:40;;;;;;;19.37;17.43;;;5.30;95.40;;;;;;4898721;29;20473;-73
2023/04/07 03:37:08;;;;;;;20.00;18.10;;;5.20;95.40;;;;;;4900557;29;20490;-73
2023/04/07 03:39:39;;;;;;;21.50;19.50;;;5.20;95.40;;;;;;4899214;29;20522;-73
2023/04/07 03:42:21;;;;;;;19.63;17.83;;;5.20;95.40;;;;;;4898672;29;20843;-73
2023/04/07 03:44:53;;;;;;;21.87;19.50;;;5.10;95.40;;;;;;4898487;29;20521;-73
2023/04/07 03:47:21;;;;;;;20.40;18.50;;;5.10;95.40;;;;;;4898575;29;20513;-73
2023/04/07 03:49:55;;;;;;;19.83;18.03;;;5.10;95.40;;;;;;4898605;29;20450;-73
2023/04/07 03:52:23;;;;;;;21.97;19.67;;;5.10;95.50;;;;;;4898420;29;20469;-73
2023/04/07 03:54:57;;;;;;;21.33;19.33;;;5.10;95.50;;;;;;4898672;29;20560;-73
2023/04/07 03:57:31;;;;;;;20.57;18.67;;;5.00;95.50;;;;;;4898416;29;20496;-73
2023/04/07 04:00:00;;;;;;;19.87;18.03;;;5.00;95.50;;;;;;4898339;29;20548;-73
2023/04/07 04:02:31;;;;;;;20.07;18.37;;;5.00;95.60;;;;;;4899447;29;20474;-73
2023/04/07 04:05:00;;;;;;;21.57;19.57;;;5.00;95.60;;;;;;4898217;29;20465;-73
2023/04/07 04:07:28;;;;;;;20.23;18.47;;;4.90;95.60;;;;;;4898190;29;20450;-73
2023/04/07 04:10:03;;;;;;;20.17;18.27;;;4.90;95.60;;;;;;4898236;29;20445;-73
2023/04/07 04:12:37;;;;;;;19.27;17.57;;;4.90;95.60;;;;;;4898893;29;20492;-73
2023/04/07 04:15:11;;;;;;;20.83;18.93;;;4.90;95.70;;;;;;4897493;29;20494;-73
2023/04/07 04:17:40;;;;;;;20.83;18.93;;;4.90;96.00;;;;;;4897661;29;20453;-73
2023/04/07 04:20:10;;;;;;;21.03;19.20;;;4.80;95.70;;;;;;4898512;29;20475;-73
2023/04/07 04:22:42;;;;;;;21.27;19.27;;;4.80;95.70;;;;;;4897981;29;20481;-73
2023/04/07 04:25:11;;;;;;;21.80;19.90;;;4.80;95.70;;;;;;4897859;29;20464;-73
2023/04/07 04:27:45;;;;;;;22.50;20.20;;;4.70;95.70;;;;;;4898324;29;20960;-73
2023/04/07 04:30:24;;;;;;;20.90;19.03;;;4.70;95.80;;;;;;4897773;29;20468;-73
2023/04/07 04:32:59;;;;;;;20.03;18.33;;;4.70;95.80;;;;;;4897653;29;20480;-73
2023/04/07 04:35:36;;;;;;;21.50;19.53;;;4.60;95.80;;;;;;4898042;29;20465;-73
2023/04/07 04:38:10;;;;;;;20.93;18.73;;;4.60;95.80;;;;;;4898024;29;20979;-73
2023/04/07 04:40:43;;;;;;;21.90;19.90;;;4.60;95.80;;;;;;4897638;29;20438;-73
2023/04/07 04:43:13;;;;;;;22.30;20.30;;;4.60;95.90;;;;;;4897757;29;20467;-73
2023/04/07 04:45:43;;;;;;;20.80;18.80;;;4.60;95.90;;;;;;4897551;29;20501;-73
2023/04/07 04:48:14;;;;;;;23.63;21.47;;;4.50;95.90;;;;;;4897481;29;20977;-73
2023/04/07 04:50:43;;;;;;;22.20;20.20;;;4.50;95.90;;;;;;4897562;29;20457;-73
2023/04/07 04:53:13;;;;;;;22.90;20.77;;;4.50;96.00;;;;;;4898283;29;20453;-73
2023/04/07 04:55:53;;;;;;;22.23;20.03;;;4.50;96.00;;;;;;4897645;29;20453;-73
2023/04/07 04:58:26;;;;;;;22.53;20.53;;;4.40;96.00;;;;;;4897419;29;20457;-73
2023/04/07 05:00:59;;;;;;;22.60;20.60;;;4.40;96.00;;;;;;4897172;29;20477;-73
2023/04/07 05:03:37;;;;;;;23.97;21.70;;;4.40;96.10;;;;;;4898782;29;20493;-73
2023/04/07 05:06:13;;;;;;;21.40;19.50;;;4.40;96.10;;;;;;4897147;29;20459;-73
2023/04/07 05:08:43;;;;;;;22.87;20.87;;;4.40;96.20;;;;;;4899521;29;20867;-73
2023/04/07 05:11:13;;;;;;;23.27;21.17;;;4.40;96.20;;;;;;4897526;29;20615;-73
2023/04/07 05:13:44;;;;;;;22.33;20.33;;;4.40;96.30;;;;;;4897238;29;20505;-73
2023/04/07 05:16:13;;;;;;;23.07;20.63;;;4.30;96.30;;;;;;4898258;29;20451;-73
2023/04/07 05:18:42;;;;;;;23.50;21.10;;;4.30;96.40;;;;;;4897399;29;20815;-73
2023/04/07 05:21:11;;;;;;;23.53;21.33;;;4.30;96.40;;;;;;4897009;29;20473;-73
2023/04/07 05:23:40;;;;;;;23.03;21.03;;;4.30;96.40;;;;;;4898368;29;20477;-73
2023/04/07 05:26:10;;;;;;;21.97;19.87;;;4.30;96.50;;;;;;4892295;29;20568;-73
2023/04/07 05:28:39;;;;;;;22.33;20.43;;;4.30;96.50;;;;;;4875608;29;20935;-74
2023/04/07 05:31:15;;;;;;;27.90;25.20;;;4.30;96.60;;;;;;4875689;29;20560;-74
2023/04/07 05:33:47;;;;;;;23.10;20.90;;;4.30;96.60;;;;;;4875390;29;20536;-73
2023/04/07 05:36:16;;;;;;;23.63;21.53;;;4.30;96.60;;;;;;4875597;29;20552;-73
2023/04/07 05:38:44;;;;;;;23.37;20.97;;;4.30;96.60;;;;;;4875394;29;20563;-73
2023/04/07 05:41:16;;;;;;;22.73;20.60;;;4.30;96.70;;;;;;4873447;29;20478;-73
2023/04/07 05:43:44;;;;;;;22.50;20.60;;;4.40;96.70;;;;;;4876753;29;20458;-73
2023/04/07 05:46:16;;;;;;;22.57;20.50;;;4.40;96.80;;;;;;4875561;29;20541;-73
2023/04/07 05:48:51;;;;;;;23.47;21.37;;;4.40;96.80;;;;;;4875496;29;20462;-74
2023/04/07 05:51:20;;;;;;;22.90;20.90;;;4.40;96.80;;;;;;4875223;29;20543;-74
2023/04/07 05:53:50;;;;;;;22.80;20.70;;;4.40;96.90;;;;;;4875513;29;20501;-74
2023/04/07 05:56:22;;;;;;;23.43;21.53;;;4.40;96.90;;;;;;4875673;29;20481;-73
2023/04/07 05:58:50;;;;;;;24.00;21.80;;;4.40;96.90;;;;;;4875549;29;20537;-73
2023/04/07 06:01:20;;;;;;;23.40;21.30;;;4.50;96.90;;;;;;4875732;29;20473;-73
2023/04/07 06:03:48;;;;;;;22.83;20.93;;;4.50;97.00;;;;;;4875077;29;20966;-74
2023/04/07 06:06:23;;;;;;;21.30;19.40;;;4.50;97.30;;;;;;4875423;29;20795;-74
2023/04/07 06:08:51;;;;;;;21.33;19.37;;;4.60;97.00;;;;;;4875235;29;20820;-73
2023/04/07 06:11:20;;;;;;;21.70;19.70;;;4.60;97.10;;;;;;4875240;29;20858;-77
2023/04/07 06:13:48;;;;;;;22.40;20.20;;;4.70;97.10;;;;;;4876341;29;20453;-73
2023/04/07 06:16:16;;;;;;;21.00;19.20;;;4.80;97.20;;;;;;4875206;29;20482;-73
2023/04/07 06:18:47;;;;;;;21.47;19.40;;;5.00;97.30;;;;;;4875377;29;20490;-73
2023/04/07 06:21:16;;;;;;;24.90;22.50;;;5.20;97.30;;;;;;4875074;29;20488;-73
2023/04/07 06:23:44;;;;;;;22.13;20.30;;;5.40;97.30;;;;;;4875318;29;20462;-73
2023/04/07 06:26:12;;;;;;;20.50;18.80;;;5.60;97.30;;;;;;4885245;29;20462;-74
2023/04/07 06:28:40;;;;;;;21.00;19.20;;;5.90;97.60;;;;;;4912829;29;20452;-73
2023/04/07 06:31:09;;;;;;;26.30;23.90;;;6.10;97.70;;;;;;4912702;29;20893;-74
2023/04/07 06:33:38;;;;;;;22.17;20.27;;;6.30;97.40;;;;;;4912597;29;20535;-74
2023/04/07 06:36:07;;;;;;;20.07;18.37;;;6.50;97.30;;;;;;4912513;29;20479;-74
2023/04/07 06:38:36;;;;;;;19.60;18.00;;;6.70;97.20;;;;;;4912555;29;21117;-74
2023/04/07 06:41:05;;;;;;;19.30;17.63;;;6.90;97.10;;;;;;4915535;29;21076;-74
2023/04/07 06:43:33;;;;;;;20.40;18.60;;;7.10;97.20;;;;;;4916112;29;20960;-74
2023/04/07 06:46:03;;;;;;;20.57;18.77;;;7.30;97.20;;;;;;4916040;29;20550;-74
2023/04/07 06:48:31;;;;;;;19.63;17.93;;;7.50;97.10;;;;;;4916517;29;20676;-74
2023/04/07 06:50:59;;;;;;;17.73;16.23;;;7.60;97.00;;;;;;4915801;29;20997;-74
2023/04/07 06:53:29;;;;;;;19.87;18.13;;;7.80;96.90;;;;;;4916139;29;20516;-74
2023/04/07 06:56:05;;;;;;;18.70;17.10;;;8.00;96.90;;;;;;4915823;29;20493;-74
2023/04/07 06:58:33;;;;;;;20.00;18.37;;;8.20;96.90;;;;;;4917138;29;20428;-74
2023/04/07 07:01:01;;;;;;;24.53;22.20;;;8.40;96.80;;;;;;4917024;29;20468;-73
2023/04/07 07:03:30;;;;;;;20.93;19.17;;;8.60;96.70;;;;;;4916968;29;20508;-73
2023/04/07 07:05:59;;;;;;;20.80;19.00;;;8.70;96.60;;;;;;4916943;29;20448;-75
2023/04/07 07:08:29;;;;;;;19.10;17.60;;;8.90;96.60;;;;;;4916467;29;20452;-76
2023/04/07 07:10:57;;;;;;;20.90;18.67;;;9.00;96.80;;;;;;4917053;29;20429;-76
2023/04/07 07:13:28;;;;;;;20.50;18.60;;;9.10;96.50;;;;;;4916723;29;20444;-76
2023/04/07 07:15:57;;;;;;;18.00;16.40;;;9.20;96.50;;;;;;4916519;29;20486;-76
2023/04/07 07:18:25;;;;;;;21.13;19.23;;;9.20;96.40;;;;;;4915689;29;20541;-76
2023/04/07 07:20:53;;;;;;;20.57;18.77;;;9.30;96.20;;;;;;4917002;29;20458;-76
2023/04/07 07:23:21;;;;;;;19.70;18.10;;;9.30;96.10;;;;;;4915444;29;20448;-76
2023/04/07 07:29:41;;;;;;;19.83;17.93;;;9.50;96.00;;;;;;4898810;29;20516;-76
2023/04/07 07:32:09;;;;;;;19.57;17.83;;;9.60;96.10;;;;;;4896374;29;20485;-76
2023/04/07 07:34:37;;;;;;;18.07;16.60;;;9.60;96.00;;;;;;4896292;29;20484;-76
2023/04/07 07:37:05;;;;;;;18.43;16.97;;;9.70;96.00;;;;;;4897743;29;20454;-76
2023/04/07 07:39:33;;;;;;;18.53;16.93;;;9.90;96.10;;;;;;4894466;29;20588;-76
2023/04/07 07:42:03;;;;;;;17.63;16.17;;;10.00;95.80;;;;;;4897650;29;20896;-79
2023/04/07 07:44:31;;;;;;;18.50;16.80;;;10.20;95.60;;;;;;4899569;29;21051;-80
2023/04/07 07:46:59;;;;;;;25.40;22.90;;;10.30;95.70;;;;;;4896654;29;20464;-75
2023/04/07 07:49:28;;;;;;;16.83;15.33;;;10.50;95.70;;;;;;4895950;29;20500;-77
2023/04/07 07:51:56;;;;;;;17.30;15.70;;;10.60;95.70;;;;;;4895923;29;20832;-75
2023/04/07 07:54:24;;;;;;;16.87;15.30;;;10.70;95.40;;;;;;4896915;29;21056;-81
2023/04/07 07:56:52;;;;;;;17.53;15.93;;;10.90;95.20;;;;;;4900258;29;20915;-75
2023/04/07 07:59:22;;;;;;;16.67;15.17;;;10.90;95.30;;;;;;4897133;29;20453;-75
2023/04/07 08:01:50;;;;;;;18.23;16.63;;;11.10;95.40;;;;;;4895591;29;20492;-75
2023/04/07 08:04:19;;;;;;;16.77;15.17;;;11.20;95.30;;;;;;4897550;29;21310;-75
2023/04/07 08:06:47;;;;;;;17.07;15.57;;;11.30;95.20;;;;;;4895874;29;20898;-75
2023/04/07 08:09:15;;;;;;;15.77;14.37;;;11.40;95.00;;;;;;4895759;29;20461;-76
2023/04/07 08:11:44;;;;;;;15.90;14.57;;;11.50;94.80;;;;;;4895888;29;20461;-78
2023/04/07 08:14:14;;;;;;;15.27;13.87;;;11.60;94.70;;;;;;4895844;29;20501;-76
2023/04/07 08:16:45;;;;;;;13.60;12.40;;;11.70;94.60;;;;;;4895601;29;20469;-76
2023/04/07 08:19:13;;;;;;;15.17;13.67;;;11.80;94.60;;;;;;4896803;29;20452;-77
2023/04/07 08:21:41;;;;;;;15.27;13.87;;;11.90;94.30;;;;;;4895612;29;20485;-76
2023/04/07 08:24:11;;;;;;;15.07;13.67;;;11.90;94.10;;;;;;4895770;29;20972;-77
2023/04/07 08:26:39;;;;;;;18.33;14.87;;;12.10;94.20;;;;;;4902971;29;20976;-76
2023/04/07 08:29:08;;;;;;;17.60;15.80;;;12.20;94.10;;;;;;4914372;29;20507;-77
2023/04/07 08:31:36;;;;;;;16.43;14.90;;;12.30;94.00;;;;;;4913938;29;20484;-77
2023/04/07 08:34:06;;;;;;;16.40;13.93;;;12.50;93.90;;;;;;4913954;29;20543;-77
2023/04/07 08:36:34;;;;;;;15.53;13.50;;;12.60;93.40;;;;;;4914053;29;20472;-76
2023/04/07 08:39:04;;;;;;;16.27;14.70;;;12.50;92.90;;;;;;4914197;29;20508;-77
2023/04/07 08:41:36;;;;;;;14.33;13.03;;;12.50;92.80;;;;;;4911902;29;20856;-77
2023/04/07 08:44:05;;;;;;;14.23;12.93;;;12.50;92.70;;;;;;4915381;29;20836;-77
2023/04/07 08:46:38;;;;;;;16.30;14.30;;;12.50;92.60;;;;;;4915496;29;20444;-77
2023/04/07 08:49:12;;;;;;;15.20;13.80;;;12.60;92.60;;;;;;4913924;29;20476;-77
2023/04/07 08:51:47;;;;;;;14.00;12.57;;;12.70;92.40;;;;;;4913458;29;20535;-77
2023/04/07 08:54:17;;;;;;;13.83;12.53;;;12.80;92.40;;;;;;4914162;29;20452;-77
2023/04/07 08:56:46;;;;;;;12.40;11.20;;;12.90;92.10;;;;;;4913595;29;20476;-77
2023/04/07 08:59:24;;;;;;;13.80;11.93;;;12.90;92.10;;;;;;4914207;29;20519;-77
2023/04/07 09:01:52;;;;;;;14.77;13.30;;;13.00;91.90;;;;;;4913259;29;20475;-77
2023/04/07 09:04:23;;;;;;;12.30;11.03;;;13.10;91.80;;;;;;4914233;29;20461;-78
2023/04/07 09:06:51;;;;;;;14.20;12.70;;;13.20;91.50;;;;;;4917278;29;20429;-77
2023/04/07 09:09:19;;;;;;;13.40;11.80;;;13.20;91.40;;;;;;4913750;29;20460;-78
2023/04/07 09:11:48;;;;;;;13.50;12.07;;;13.30;91.20;;;;;;4914779;29;20474;-77
2023/04/07 09:14:17;;;;;;;13.87;12.47;;;13.30;91.00;;;;;;4914488;29;20440;-78
2023/04/07 09:16:46;;;;;;;13.73;12.40;;;13.30;90.90;;;;;;4913434;29;20476;-77
2023/04/07 09:19:14;;;;;;;13.47;12.20;;;13.40;90.70;;;;;;4914896;29;20441;-77
2023/04/07 09:21:51;;;;;;;13.73;12.33;;;13.50;90.60;;;;;;4913478;29;20472;-77
2023/04/07 09:24:24;;;;;;;14.47;13.03;;;13.40;90.20;;;;;;4913498;29;20979;-77
2023/04/07 09:27:09;;;;;;;15.40;14.00;;;13.50;90.20;;;;;;4904725;29;20521;-77
2023/04/07 09:29:37;;;;;;;12.23;11.07;;;13.50;90.10;;;;;;4894591;29;20556;-77
2023/04/07 09:32:06;;;;;;;13.40;12.10;;;13.50;90.10;;;;;;4894520;29;20845;-77
2023/04/07 09:34:36;;;;;;;12.73;11.50;;;13.50;90.10;;;;;;4895944;29;20445;-77
2023/04/07 09:37:18;;;;;;;14.10;12.83;;;13.60;90.10;;;;;;4894784;29;20556;-77
2023/04/07 09:39:51;;;;;;;13.70;12.30;;;13.70;90.20;;;;;;4892680;29;20987;-77
2023/04/07 09:42:20;;;;;;;13.00;11.80;;;13.80;90.20;;;;;;4894292;29;20480;-77
2023/04/07 09:44:48;;;;;;;13.70;12.40;;;13.80;90.10;;;;;;4895670;29;20457;-77
2023/04/07 09:47:16;;;;;;;13.77;12.50;;;13.90;90.10;;;;;;4896508;29;20536;-77
2023/04/07 09:49:52;;;;;;;14.10;12.77;;;13.90;89.50;;;;;;4894592;29;20965;-78
2023/04/07 09:52:25;;;;;;;13.13;11.97;;;13.90;89.20;;;;;;4894867;29;20862;-77
2023/04/07 09:54:55;;;;;;;13.57;12.30;;;13.90;88.70;;;;;;4897457;29;20516;-79
2023/04/07 09:57:24;;;;;;;13.47;12.17;;;13.90;88.60;;;;;;4896259;29;20477;-79
2023/04/07 09:59:54;;;;;;;13.63;12.33;;;13.90;88.70;;;;;;4895832;29;20557;-79
2023/04/07 10:02:25;;;;;;;12.40;11.20;;;13.90;88.60;;;;;;4895319;29;20481;-79
2023/04/07 10:04:54;;;;;;;13.33;12.10;;;14.00;89.00;;;;;;4895968;29;20444;-79
2023/04/07 10:07:24;;;;;;;12.60;11.30;;;14.10;89.00;;;;;;4894781;29;20461;-77
2023/04/07 10:09:52;;;;;;;14.20;12.70;;;14.10;88.90;;;;;;4894106;29;20449;-77
2023/04/07 10:12:20;;;;;;;13.37;12.17;;;14.20;88.40;;;;;;4894345;29;20468;-78
2023/04/07 10:14:50;;;;;;;14.43;12.60;;;14.20;87.70;;;;;;4898124;29;20460;-79
2023/04/07 10:17:19;;;;;;;14.47;13.13;;;14.20;87.50;;;;;;4899829;29;20588;-79
2023/04/07 10:19:50;;;;;;;12.80;11.47;;;14.20;87.20;;;;;;4899958;29;20457;-79
2023/04/07 10:22:19;;;;;;;12.77;11.43;;;14.20;87.40;;;;;;4899098;29;20481;-78
2023/04/07 10:24:56;;;;;;;14.90;12.20;;;14.20;86.70;;;;;;4899821;29;20457;-82
2023/04/07 10:27:30;;;;;;;13.43;12.23;;;14.20;86.90;;;;;;4913513;29;20456;-80
2023/04/07 10:30:00;;;;;;;15.23;12.50;;;14.20;86.80;;;;;;4918545;29;20550;-80
2023/04/07 10:32:29;;;;;;;13.70;12.43;;;14.20;86.70;;;;;;4917538;29;20555;-79
2023/04/07 10:35:01;;;;;;;13.40;12.00;;;14.20;86.60;;;;;;4919037;29;20448;-79
2023/04/07 10:37:29;;;;;;;13.73;12.43;;;14.20;86.30;;;;;;4918017;29;20502;-80
2023/04/07 10:40:34;;;;;;;14.20;12.13;;;14.20;86.30;;;;;;4914874;29;20952;-79
2023/04/07 10:43:08;;;;;;;13.80;12.50;;;14.20;86.10;;;;;;4915929;29;20488;-78
2023/04/07 10:45:55;;;;;;;12.80;11.50;;;14.20;86.50;;;;;;4916045;29;20464;-78
2023/04/07 10:48:23;;;;;;;15.20;12.17;;;14.30;86.40;;;;;;4916087;29;20444;-78
2023/04/07 10:51:15;;;;;;;12.07;10.97;;;14.30;86.40;;;;;;4915605;29;20559;-78
2023/04/07 10:54:25;;;;;;;13.33;12.07;;;14.30;85.20;;;;;;4912194;29;20501;-77
2023/04/07 10:57:13;;;;;;;12.90;11.60;;;14.20;85.00;;;;;;4899840;29;20980;-77
2023/04/07 11:00:16;;;;;;;13.80;12.40;;;14.10;84.90;;;;;;4899580;29;20905;-77
2023/04/07 11:02:45;;;;;;;12.93;11.77;;;14.10;84.70;;;;;;4900783;29;20532;-77
2023/04/07 11:05:22;;;;;;;12.77;11.27;;;14.10;84.90;;;;;;4900854;29;20638;-76
2023/04/07 11:07:58;;;;;;;13.33;11.80;;;14.10;85.00;;;;;;4901052;29;20437;-76
2023/04/07 11:10:26;;;;;;;12.40;11.13;;;14.10;85.00;;;;;;4899527;29;20961;-77
2023/04/07 11:13:06;;;;;;;12.33;11.13;;;14.10;84.90;;;;;;4899528;29;20485;-77
2023/04/07 11:15:37;;;;;;;12.33;11.13;;;14.10;85.10;;;;;;4899359;29;20450;-77
2023/04/07 11:18:15;;;;;;;12.10;10.90;;;14.20;85.60;;;;;;4901069;29;20818;-77
2023/04/07 11:20:47;;;;;;;12.90;11.60;;;14.20;84.90;;;;;;4901267;29;20449;-78
2023/04/07 11:23:17;;;;;;;11.80;10.60;;;14.20;85.00;;;;;;4902711;29;20950;-77
2023/04/07 11:25:47;;;;;;;12.50;11.20;;;14.20;85.20;;;;;;4902124;29;20445;-76
2023/04/07 11:28:16;;;;;;;12.53;11.30;;;14.30;85.50;;;;;;4899043;29;20961;-77
2023/04/07 11:30:50;;;;;;;12.70;11.47;;;14.30;85.40;;;;;;4898919;29;20460;-76
2023/04/07 11:33:20;;;;;;;13.43;12.13;;;14.30;85.40;;;;;;4898922;29;20513;-77
2023/04/07 11:35:54;;;;;;;13.60;10.70;;;14.30;84.80;;;;;;4898807;29;20457;-77
2023/04/07 11:38:24;;;;;;;11.97;10.80;;;14.30;84.20;;;;;;4898746;29;20472;-76
2023/04/07 11:40:53;;;;;;;12.97;11.40;;;14.30;84.30;;;;;;4898768;29;20457;-78
2023/04/07 11:43:22;;;;;;;16.03;10.73;;;14.30;84.10;;;;;;4898902;29;20468;-77
2023/04/07 11:46:10;;;;;;;12.87;11.67;;;14.20;83.80;;;;;;4898924;29;20461;-78
2023/04/07 11:48:40;;;;;;;12.40;11.20;;;14.20;83.50;;;;;;4898891;29;20492;-77
2023/04/07 11:51:16;;;;;;;12.10;10.80;;;14.20;83.40;;;;;;4898725;29;20529;-77
2023/04/07 11:53:45;;;;;;;12.20;11.00;;;14.20;83.20;;;;;;4898785;29;20453;-78
2023/04/07 11:56:17;;;;;;;12.00;10.80;;;14.20;83.20;;;;;;4898836;29;20449;-74
2023/04/07 11:58:49;;;;;;;11.90;10.40;;;14.20;83.00;;;;;;4899789;29;20952;-74
2023/04/07 12:01:20;;;;;;;11.60;10.47;;;14.20;83.10;;;;;;4898573;29;20596;-74
2023/04/07 12:03:57;;;;;;;10.17;9.13;;;14.10;83.10;;;;;;4898517;29;20480;-75
2023/04/07 12:06:33;;;;;;;11.40;10.03;;;14.10;83.30;;;;;;4898165;29;20961;-74
2023/04/07 12:09:02;;;;;;;12.20;10.90;;;14.20;83.60;;;;;;4900171;29;20512;-74
2023/04/07 12:11:30;;;;;;;11.37;10.10;;;14.20;83.70;;;;;;4898019;29;20471;-74
2023/04/07 12:13:59;;;;;;;11.60;10.40;;;14.30;83.70;;;;;;4899651;29;20449;-74
2023/04/07 12:16:28;;;;;;;11.67;10.47;;;14.40;83.60;;;;;;4898217;29;20476;-74
2023/04/07 12:18:57;;;;;;;11.37;10.20;;;14.30;83.50;;;;;;4899365;29;20501;-74
2023/04/07 12:21:25;;;;;;;12.50;11.20;;;14.40;83.70;;;;;;4898075;29;20476;-74
2023/04/07 12:23:53;;;;;;;12.00;10.80;;;14.40;83.40;;;;;;4898349;29;20815;-74
2023/04/07 12:26:21;;;;;;;11.40;10.20;;;14.40;82.90;;;;;;4899324;29;20804;-74
2023/04/07 12:28:50;;;;;;;11.53;10.33;;;14.40;82.50;;;;;;4898480;29;20576;-74
2023/04/07 12:31:18;;;;;;;11.83;10.73;;;14.40;82.20;;;;;;4899056;29;20512;-75
2023/04/07 12:33:48;;;;;;;11.80;10.60;;;14.40;82.30;;;;;;4898175;29;20477;-74
2023/04/07 12:36:16;;;;;;;11.63;10.50;;;14.30;81.80;;;;;;4897304;29;20446;-74
2023/04/07 12:38:46;;;;;;;11.87;10.60;;;14.30;81.70;;;;;;4897624;29;20475;-74
2023/04/07 12:41:14;;;;;;;11.40;10.20;;;14.30;82.00;;;;;;4897518;29;20512;-75
2023/04/07 12:43:42;;;;;;;11.60;9.57;;;14.30;81.70;;;;;;4898933;29;20461;-74
2023/04/07 12:46:13;;;;;;;11.33;10.23;;;14.30;81.90;;;;;;4898760;29;20429;-75
2023/04/07 12:48:42;;;;;;;11.27;10.00;;;14.40;82.20;;;;;;4899147;29;20505;-74
2023/04/07 12:51:11;;;;;;;11.93;10.73;;;14.40;82.40;;;;;;4897426;29;20477;-74
2023/04/07 12:53:40;;;;;;;11.73;10.23;;;14.40;82.50;;;;;;4898851;29;20524;-74
2023/04/07 12:56:08;;;;;;;14.30;11.90;;;14.40;82.30;;;;;;4897523;29;20445;-75